sensor_id;sensor_type;location;lat;lon;timestamp;pressure;altitude;pressure_sealevel;temperature;humidity
8653;BME280;4364;52.426;9.424;2023-07-31T00:01:36;100471.09;;;15.48;100.00
8653;BME280;4364;52.426;9.424;2023-07-31T00:04:02;100488.16;;;15.45;100.00
8653;BME280;4364;52.426;9.424;2023-07-31T00:06:29;100474.94;;;15.47;100.00
8653;BME280;4364;52.426;9.424;2023-07-31T00:08:56;100477.56;;;15.52;100.00
8653;BME280;4364;52.426;9.424;2023-07-31T00:11:22;100477.75;;;15.55;100.00
8653;BME280;4364;52.426;9.424;2023-07-31T00:13:49;100475.63;;;15.52;100.00
8653;BME280;4364;52.426;9.424;2023-07-31T00:16:15;100481.63;;;15.63;100.00
8653;BME280;4364;52.426;9.424;2023-07-31T00:18:42;100478.22;;;15.57;100.00
8653;BME280;4364;52.426;9.424;2023-07-31T00:21:08;100475.00;;;15.55;100.00
8653;BME280;4364;52.426;9.424;2023-07-31T00:23:35;100478.41;;;15.61;100.00
8653;BME280;4364;52.426;9.424;2023-07-31T00:26:02;100477.75;;;15.55;100.00
8653;BME280;4364;52.426;9.424;2023-07-31T00:28:28;100470.50;;;15.60;100.00
8653;BME280;4364;52.426;9.424;2023-07-31T00:30:55;100467.91;;;15.54;100.00
8653;BME280;4364;52.426;9.424;2023-07-31T00:33:25;100465.16;;;15.54;100.00
8653;BME280;4364;52.426;9.424;2023-07-31T00:35:51;100458.88;;;15.54;100.00
8653;BME280;4364;52.426;9.424;2023-07-31T00:38:18;100456.94;;;15.54;100.00
8653;BME280;4364;52.426;9.424;2023-07-31T00:40:44;100460.00;;;15.53;100.00
8653;BME280;4364;52.426;9.424;2023-07-31T00:43:11;100444.69;;;15.52;100.00
8653;BME280;4364;52.426;9.424;2023-07-31T00:45:37;100445.94;;;15.46;100.00
8653;BME280;4364;52.426;9.424;2023-07-31T00:48:04;100440.47;;;15.46;100.00
8653;BME280;4364;52.426;9.424;2023-07-31T00:50:34;100434.66;;;15.47;100.00
8653;BME280;4364;52.426;9.424;2023-07-31T00:53:01;100412.63;;;15.61;100.00
8653;BME280;4364;52.426;9.424;2023-07-31T00:55:29;100404.41;;;15.61;100.00
8653;BME280;4364;52.426;9.424;2023-07-31T00:57:56;100404.41;;;15.61;100.00
8653;BME280;4364;52.426;9.424;2023-07-31T01:00:22;100405.66;;;15.55;100.00
8653;BME280;4364;52.426;9.424;2023-07-31T01:02:50;100410.66;;;15.53;100.00
8653;BME280;4364;52.426;9.424;2023-07-31T01:05:25;100416.59;;;15.46;100.00
8653;BME280;4364;52.426;9.424;2023-07-31T01:08:12;100415.66;;;15.51;100.00
8653;BME280;4364;52.426;9.424;2023-07-31T01:10:49;100415.34;;;15.52;100.00
8653;BME280;4364;52.426;9.424;2023-07-31T01:13:18;100410.47;;;15.41;100.00
8653;BME280;4364;52.426;9.424;2023-07-31T01:15:45;100405.97;;;15.45;100.00
8653;BME280;4364;52.426;9.424;2023-07-31T01:18:11;100397.75;;;15.53;100.00
8653;BME280;4364;52.426;9.424;2023-07-31T01:20:41;100394.72;;;15.55;100.00
8653;BME280;4364;52.426;9.424;2023-07-31T01:23:51;100400.38;;;15.59;100.00
8653;BME280;4364;52.426;9.424;2023-07-31T01:26:11;100394.75;;;15.64;100.00
8653;BME280;4364;52.426;9.424;2023-07-31T01:28:47;100390.69;;;15.61;100.00
8653;BME280;4364;52.426;9.424;2023-07-31T01:31:20;100394.91;;;15.67;100.00
8653;BME280;4364;52.426;9.424;2023-07-31T01:33:48;100385.06;;;15.57;100.00
8653;BME280;4364;52.426;9.424;2023-07-31T01:36:16;100388.59;;;15.58;100.00
8653;BME280;4364;52.426;9.424;2023-07-31T01:38:43;100379.88;;;15.56;100.00
8653;BME280;4364;52.426;9.424;2023-07-31T01:41:09;100378.41;;;15.41;100.00
8653;BME280;4364;52.426;9.424;2023-07-31T01:43:36;100370.31;;;15.36;100.00
8653;BME280;4364;52.426;9.424;2023-07-31T01:46:04;100375.50;;;15.46;100.00
8653;BME280;4364;52.426;9.424;2023-07-31T01:48:30;100371.34;;;15.49;100.00
8653;BME280;4364;52.426;9.424;2023-07-31T01:51:02;100376.66;;;15.45;100.00
8653;BME280;4364;52.426;9.424;2023-07-31T01:53:32;100374.00;;;15.31;100.00
8653;BME280;4364;52.426;9.424;2023-07-31T01:55:58;100370.63;;;15.34;100.00
8653;BME280;4364;52.426;9.424;2023-07-31T01:58:25;100367.59;;;15.36;100.00
8653;BME280;4364;52.426;9.424;2023-07-31T02:00:52;100365.19;;;15.43;100.00
8653;BME280;4364;52.426;9.424;2023-07-31T02:03:18;100365.81;;;15.40;100.00
8653;BME280;4364;52.426;9.424;2023-07-31T02:05:46;100361.97;;;15.41;100.00
8653;BME280;4364;52.426;9.424;2023-07-31T02:08:13;100362.75;;;15.42;100.00
8653;BME280;4364;52.426;9.424;2023-07-31T02:10:40;100354.50;;;15.33;100.00
8653;BME280;4364;52.426;9.424;2023-07-31T02:13:07;100355.78;;;15.27;100.00
8653;BME280;4364;52.426;9.424;2023-07-31T02:15:34;100341.28;;;15.26;100.00
8653;BME280;4364;52.426;9.424;2023-07-31T02:18:01;100341.13;;;15.31;100.00
8653;BME280;4364;52.426;9.424;2023-07-31T02:20:27;100342.13;;;15.35;100.00
8653;BME280;4364;52.426;9.424;2023-07-31T02:22:54;100335.19;;;15.38;100.00
8653;BME280;4364;52.426;9.424;2023-07-31T02:25:20;100333.59;;;15.37;100.00
8653;BME280;4364;52.426;9.424;2023-07-31T02:27:47;100328.59;;;15.39;100.00
8653;BME280;4364;52.426;9.424;2023-07-31T02:30:14;100337.31;;;15.41;100.00
8653;BME280;4364;52.426;9.424;2023-07-31T02:32:41;100331.13;;;15.27;100.00
8653;BME280;4364;52.426;9.424;2023-07-31T02:35:07;100337.56;;;15.22;100.00
8653;BME280;4364;52.426;9.424;2023-07-31T02:37:34;100330.16;;;15.23;100.00
8653;BME280;4364;52.426;9.424;2023-07-31T02:40:00;100334.13;;;15.08;100.00
8653;BME280;4364;52.426;9.424;2023-07-31T02:42:28;100328.03;;;15.19;100.00
8653;BME280;4364;52.426;9.424;2023-07-31T02:44:54;100330.63;;;15.16;100.00
8653;BME280;4364;52.426;9.424;2023-07-31T02:47:22;100333.06;;;15.26;100.00
8653;BME280;4364;52.426;9.424;2023-07-31T02:49:49;100322.41;;;15.16;100.00
8653;BME280;4364;52.426;9.424;2023-07-31T02:52:16;100330.13;;;15.14;100.00
8653;BME280;4364;52.426;9.424;2023-07-31T02:54:43;100318.19;;;15.10;100.00
8653;BME280;4364;52.426;9.424;2023-07-31T02:57:09;100323.66;;;15.10;100.00
8653;BME280;4364;52.426;9.424;2023-07-31T02:59:36;100321.44;;;15.12;100.00
8653;BME280;4364;52.426;9.424;2023-07-31T03:02:03;100322.84;;;15.09;100.00
8653;BME280;4364;52.426;9.424;2023-07-31T03:04:29;100332.31;;;15.03;100.00
8653;BME280;4364;52.426;9.424;2023-07-31T03:06:56;100333.97;;;15.04;100.00
8653;BME280;4364;52.426;9.424;2023-07-31T03:09:22;100328.84;;;15.20;100.00
8653;BME280;4364;52.426;9.424;2023-07-31T03:11:49;100330.94;;;15.14;100.00
8653;BME280;4364;52.426;9.424;2023-07-31T03:14:15;100337.53;;;15.13;100.00
8653;BME280;4364;52.426;9.424;2023-07-31T03:16:43;100337.22;;;15.15;100.00
8653;BME280;4364;52.426;9.424;2023-07-31T03:19:10;100338.19;;;15.10;100.00
8653;BME280;4364;52.426;9.424;2023-07-31T03:21:37;100330.75;;;15.11;100.00
8653;BME280;4364;52.426;9.424;2023-07-31T03:24:03;100326.69;;;14.99;100.00
8653;BME280;4364;52.426;9.424;2023-07-31T03:26:31;100322.84;;;15.09;100.00
8653;BME280;4364;52.426;9.424;2023-07-31T03:28:58;100319.81;;;15.11;100.00
8653;BME280;4364;52.426;9.424;2023-07-31T03:31:25;100324.97;;;15.12;100.00
8653;BME280;4364;52.426;9.424;2023-07-31T03:33:52;100325.59;;;15.09;100.00
8653;BME280;4364;52.426;9.424;2023-07-31T03:36:19;100317.50;;;14.95;100.00
8653;BME280;4364;52.426;9.424;2023-07-31T03:38:46;100316.88;;;14.98;100.00
8653;BME280;4364;52.426;9.424;2023-07-31T03:41:12;100311.88;;;15.00;100.00
8653;BME280;4364;52.426;9.424;2023-07-31T03:43:39;100317.81;;;14.94;100.00
8653;BME280;4364;52.426;9.424;2023-07-31T03:46:06;100316.03;;;14.98;100.00
8653;BME280;4364;52.426;9.424;2023-07-31T03:48:33;100321.06;;;15.05;100.00
8653;BME280;4364;52.426;9.424;2023-07-31T03:50:59;100320.88;;;15.01;100.00
8653;BME280;4364;52.426;9.424;2023-07-31T03:53:26;100303.97;;;14.99;100.00
8653;BME280;4364;52.426;9.424;2023-07-31T03:55:52;100307.47;;;14.91;100.00
8653;BME280;4364;52.426;9.424;2023-07-31T03:58:19;100309.56;;;14.85;100.00
8653;BME280;4364;52.426;9.424;2023-07-31T04:00:46;100309.19;;;14.78;100.00
8653;BME280;4364;52.426;9.424;2023-07-31T04:03:13;100307.22;;;14.70;100.00
8653;BME280;4364;52.426;9.424;2023-07-31T04:05:39;100312.75;;;14.78;100.00
8653;BME280;4364;52.426;9.424;2023-07-31T04:08:06;100309.69;;;14.80;100.00
8653;BME280;4364;52.426;9.424;2023-07-31T04:10:33;100312.09;;;14.81;100.00
8653;BME280;4364;52.426;9.424;2023-07-31T04:13:00;100311.94;;;14.78;100.00
8653;BME280;4364;52.426;9.424;2023-07-31T04:15:26;100303.69;;;14.69;100.00
8653;BME280;4364;52.426;9.424;2023-07-31T04:17:53;100310.09;;;14.64;100.00
8653;BME280;4364;52.426;9.424;2023-07-31T04:20:20;100300.47;;;14.67;100.00
8653;BME280;4364;52.426;9.424;2023-07-31T04:22:46;100303.19;;;14.67;100.00
8653;BME280;4364;52.426;9.424;2023-07-31T04:25:13;100303.72;;;14.78;100.00
8653;BME280;4364;52.426;9.424;2023-07-31T04:27:39;100307.38;;;14.73;100.00
8653;BME280;4364;52.426;9.424;2023-07-31T04:30:06;100302.56;;;14.70;100.00
8653;BME280;4364;52.426;9.424;2023-07-31T04:32:34;100298.34;;;14.64;100.00
8653;BME280;4364;52.426;9.424;2023-07-31T04:35:02;100295.34;;;14.74;100.00
8653;BME280;4364;52.426;9.424;2023-07-31T04:37:29;100299.97;;;14.65;100.00
8653;BME280;4364;52.426;9.424;2023-07-31T04:39:56;100295.97;;;14.71;100.00
8653;BME280;4364;52.426;9.424;2023-07-31T04:42:22;100299.19;;;14.73;100.00
8653;BME280;4364;52.426;9.424;2023-07-31T04:44:49;100292.41;;;14.71;100.00
8653;BME280;4364;52.426;9.424;2023-07-31T04:47:16;100285.31;;;14.70;100.00
8653;BME280;4364;52.426;9.424;2023-07-31T04:49:42;100290.63;;;14.66;100.00
8653;BME280;4364;52.426;9.424;2023-07-31T04:52:09;100285.28;;;14.61;100.00
8653;BME280;4364;52.426;9.424;2023-07-31T04:54:35;100279.69;;;14.66;100.00
8653;BME280;4364;52.426;9.424;2023-07-31T04:57:02;100281.97;;;14.73;100.00
8653;BME280;4364;52.426;9.424;2023-07-31T04:59:28;100284.06;;;14.76;100.00
8653;BME280;4364;52.426;9.424;2023-07-31T05:01:55;100282.66;;;14.78;100.00
8653;BME280;4364;52.426;9.424;2023-07-31T05:04:22;100285.63;;;14.68;100.00
8653;BME280;4364;52.426;9.424;2023-07-31T05:06:49;100278.59;;;14.76;100.00
8653;BME280;4364;52.426;9.424;2023-07-31T05:09:15;100280.16;;;14.68;100.00
8653;BME280;4364;52.426;9.424;2023-07-31T05:11:42;100270.22;;;14.72;100.00
8653;BME280;4364;52.426;9.424;2023-07-31T05:14:09;100269.22;;;14.68;100.00
8653;BME280;4364;52.426;9.424;2023-07-31T05:16:36;100270.22;;;14.72;100.00
8653;BME280;4364;52.426;9.424;2023-07-31T05:19:03;100273.91;;;14.76;100.00
8653;BME280;4364;52.426;9.424;2023-07-31T05:21:29;100272.81;;;14.77;100.00
8653;BME280;4364;52.426;9.424;2023-07-31T05:23:56;100270.03;;;14.69;100.00
8653;BME280;4364;52.426;9.424;2023-07-31T05:26:22;100272.66;;;14.82;100.00
8653;BME280;4364;52.426;9.424;2023-07-31T05:28:49;100268.28;;;14.73;100.00
8653;BME280;4364;52.426;9.424;2023-07-31T05:31:16;100260.75;;;14.78;100.00
8653;BME280;4364;52.426;9.424;2023-07-31T05:33:42;100252.88;;;14.86;100.00
8653;BME280;4364;52.426;9.424;2023-07-31T05:36:09;100256.44;;;14.95;100.00
8653;BME280;4364;52.426;9.424;2023-07-31T05:38:35;100249.06;;;14.95;100.00
8653;BME280;4364;52.426;9.424;2023-07-31T05:41:02;100255.19;;;15.01;100.00
8653;BME280;4364;52.426;9.424;2023-07-31T05:43:28;100243.44;;;15.00;100.00
8653;BME280;4364;52.426;9.424;2023-07-31T05:45:55;100252.09;;;14.94;100.00
8653;BME280;4364;52.426;9.424;2023-07-31T05:48:21;100252.59;;;14.96;100.00
8653;BME280;4364;52.426;9.424;2023-07-31T05:50:48;100260.50;;;15.06;100.00
8653;BME280;4364;52.426;9.424;2023-07-31T05:53:14;100249.09;;;15.13;100.00
8653;BME280;4364;52.426;9.424;2023-07-31T05:55:41;100256.03;;;15.19;100.00
8653;BME280;4364;52.426;9.424;2023-07-31T05:58:08;100257.16;;;15.27;100.00
8653;BME280;4364;52.426;9.424;2023-07-31T06:00:34;100254.59;;;15.22;100.00
8653;BME280;4364;52.426;9.424;2023-07-31T06:03:01;100253.78;;;15.21;100.00
8653;BME280;4364;52.426;9.424;2023-07-31T06:05:27;100258.47;;;15.38;100.00
8653;BME280;4364;52.426;9.424;2023-07-31T06:07:56;100253.31;;;15.28;100.00
8653;BME280;4364;52.426;9.424;2023-07-31T06:10:23;100260.91;;;15.40;100.00
8653;BME280;4364;52.426;9.424;2023-07-31T06:12:50;100244.47;;;15.40;100.00
8653;BME280;4364;52.426;9.424;2023-07-31T06:15:16;100249.63;;;15.41;100.00
8653;BME280;4364;52.426;9.424;2023-07-31T06:17:45;100248.34;;;15.38;100.00
8653;BME280;4364;52.426;9.424;2023-07-31T06:20:12;100245.94;;;15.37;100.00
8653;BME280;4364;52.426;9.424;2023-07-31T06:22:38;100253.50;;;15.40;100.00
8653;BME280;4364;52.426;9.424;2023-07-31T06:25:05;100256.91;;;15.46;100.00
8653;BME280;4364;52.426;9.424;2023-07-31T06:27:32;100254.47;;;15.44;100.00
8653;BME280;4364;52.426;9.424;2023-07-31T06:29:58;100254.78;;;15.34;100.00
8653;BME280;4364;52.426;9.424;2023-07-31T06:32:26;100247.53;;;15.38;100.00
8653;BME280;4364;52.426;9.424;2023-07-31T06:34:53;100249.78;;;15.36;100.00
8653;BME280;4364;52.426;9.424;2023-07-31T06:37:20;100254.63;;;15.39;100.00
8653;BME280;4364;52.426;9.424;2023-07-31T06:39:46;100254.63;;;15.30;100.00
8653;BME280;4364;52.426;9.424;2023-07-31T06:42:13;100259.25;;;15.21;100.00
8653;BME280;4364;52.426;9.424;2023-07-31T06:44:39;100246.56;;;15.34;100.00
8653;BME280;4364;52.426;9.424;2023-07-31T06:47:06;100251.72;;;15.35;100.00
8653;BME280;4364;52.426;9.424;2023-07-31T06:49:33;100257.53;;;15.34;100.00
8653;BME280;4364;52.426;9.424;2023-07-31T06:51:59;100261.22;;;15.29;100.00
8653;BME280;4364;52.426;9.424;2023-07-31T06:54:28;100264.91;;;15.33;100.00
8653;BME280;4364;52.426;9.424;2023-07-31T06:56:55;100255.41;;;15.31;100.00
8653;BME280;4364;52.426;9.424;2023-07-31T06:59:21;100250.91;;;15.26;100.00
8653;BME280;4364;52.426;9.424;2023-07-31T07:01:47;100235.94;;;15.32;100.00
8653;BME280;4364;52.426;9.424;2023-07-31T07:04:14;100236.25;;;15.31;100.00
8653;BME280;4364;52.426;9.424;2023-07-31T07:06:41;100236.25;;;15.31;100.00
8653;BME280;4364;52.426;9.424;2023-07-31T07:09:08;100252.69;;;15.31;100.00
8653;BME280;4364;52.426;9.424;2023-07-31T07:11:35;100251.09;;;15.38;100.00
8653;BME280;4364;52.426;9.424;2023-07-31T07:14:03;100261.69;;;15.40;100.00
8653;BME280;4364;52.426;9.424;2023-07-31T07:16:30;100256.75;;;15.42;100.00
8653;BME280;4364;52.426;9.424;2023-07-31T07:18:56;100252.84;;;15.43;100.00
8653;BME280;4364;52.426;9.424;2023-07-31T07:21:30;100250.94;;;15.61;100.00
8653;BME280;4364;52.426;9.424;2023-07-31T07:23:57;100251.41;;;15.63;100.00
8653;BME280;4364;52.426;9.424;2023-07-31T07:26:23;100250.31;;;15.64;100.00
8653;BME280;4364;52.426;9.424;2023-07-31T07:28:50;100254.19;;;15.72;100.00
8653;BME280;4364;52.426;9.424;2023-07-31T07:31:16;100249.81;;;15.71;100.00
8653;BME280;4364;52.426;9.424;2023-07-31T07:33:43;100255.47;;;15.74;100.00
8653;BME280;4364;52.426;9.424;2023-07-31T07:36:10;100245.97;;;15.81;100.00
8653;BME280;4364;52.426;9.424;2023-07-31T07:38:36;100253.22;;;15.94;100.00
8653;BME280;4364;52.426;9.424;2023-07-31T07:41:04;100253.06;;;15.99;100.00
8653;BME280;4364;52.426;9.424;2023-07-31T07:43:31;100248.69;;;15.98;100.00
8653;BME280;4364;52.426;9.424;2023-07-31T07:45:57;100238.72;;;16.02;100.00
8653;BME280;4364;52.426;9.424;2023-07-31T07:48:24;100238.03;;;16.14;100.00
8653;BME280;4364;52.426;9.424;2023-07-31T07:50:51;100230.91;;;16.22;100.00
8653;BME280;4364;52.426;9.424;2023-07-31T07:53:18;100242.53;;;16.27;100.00
8653;BME280;4364;52.426;9.424;2023-07-31T07:55:44;100240.22;;;16.38;100.00
8653;BME280;4364;52.426;9.424;2023-07-31T07:58:11;100251.31;;;16.59;100.00
8653;BME280;4364;52.426;9.424;2023-07-31T08:00:38;100242.66;;;16.40;100.00
8653;BME280;4364;52.426;9.424;2023-07-31T08:03:04;100242.31;;;16.41;100.00
8653;BME280;4364;52.426;9.424;2023-07-31T08:05:32;100252.44;;;16.58;100.00
8653;BME280;4364;52.426;9.424;2023-07-31T08:08:00;100241.88;;;16.78;100.00
8653;BME280;4364;52.426;9.424;2023-07-31T08:10:27;100251.06;;;16.82;100.00
8653;BME280;4364;52.426;9.424;2023-07-31T08:12:53;100250.72;;;16.92;100.00
8653;BME280;4364;52.426;9.424;2023-07-31T08:15:20;100240.88;;;16.91;100.00
8653;BME280;4364;52.426;9.424;2023-07-31T08:17:46;100248.16;;;16.78;100.00
8653;BME280;4364;52.426;9.424;2023-07-31T08:20:13;100253.97;;;16.77;100.00
8653;BME280;4364;52.426;9.424;2023-07-31T08:22:40;100242.06;;;16.73;100.00
8653;BME280;4364;52.426;9.424;2023-07-31T08:25:07;100243.13;;;16.80;100.00
8653;BME280;4364;52.426;9.424;2023-07-31T08:27:34;100241.41;;;16.84;100.00
8653;BME280;4364;52.426;9.424;2023-07-31T08:30:00;100234.88;;;16.98;100.00
8653;BME280;4364;52.426;9.424;2023-07-31T08:32:27;100231.47;;;16.92;100.00
8653;BME280;4364;52.426;9.424;2023-07-31T08:34:53;100227.16;;;16.91;100.00
8653;BME280;4364;52.426;9.424;2023-07-31T08:37:20;100217.97;;;16.78;100.00
8653;BME280;4364;52.426;9.424;2023-07-31T08:39:46;100215.69;;;16.89;100.00
8653;BME280;4364;52.426;9.424;2023-07-31T08:42:13;100211.75;;;16.99;100.00
8653;BME280;4364;52.426;9.424;2023-07-31T08:44:40;100212.25;;;16.92;100.00
8653;BME280;4364;52.426;9.424;2023-07-31T08:47:07;100218.91;;;16.91;100.00
8653;BME280;4364;52.426;9.424;2023-07-31T08:49:34;100218.09;;;16.82;100.00
8653;BME280;4364;52.426;9.424;2023-07-31T08:52:02;100214.59;;;16.73;100.00
8653;BME280;4364;52.426;9.424;2023-07-31T08:54:29;100214.41;;;16.78;100.00
8653;BME280;4364;52.426;9.424;2023-07-31T08:56:59;100213.78;;;16.81;100.00
8653;BME280;4364;52.426;9.424;2023-07-31T08:59:30;100212.81;;;16.77;100.00
8653;BME280;4364;52.426;9.424;2023-07-31T09:02:01;100203.09;;;16.88;100.00
8653;BME280;4364;52.426;9.424;2023-07-31T09:04:30;100197.69;;;17.00;100.00
8653;BME280;4364;52.426;9.424;2023-07-31T09:07:00;100193.81;;;17.01;100.00
8653;BME280;4364;52.426;9.424;2023-07-31T09:09:27;100189.00;;;17.19;100.00
8653;BME280;4364;52.426;9.424;2023-07-31T09:11:54;100192.34;;;17.25;100.00
8653;BME280;4364;52.426;9.424;2023-07-31T09:14:21;100207.41;;;17.19;100.00
8653;BME280;4364;52.426;9.424;2023-07-31T09:16:55;100202.44;;;17.12;100.00
8653;BME280;4364;52.426;9.424;2023-07-31T09:19:35;100184.50;;;17.15;100.00
8653;BME280;4364;52.426;9.424;2023-07-31T09:22:05;100192.00;;;17.06;100.00
8653;BME280;4364;52.426;9.424;2023-07-31T09:24:33;100188.69;;;16.91;100.00
8653;BME280;4364;52.426;9.424;2023-07-31T09:27:00;100182.75;;;16.80;100.00
8653;BME280;4364;52.426;9.424;2023-07-31T09:29:28;100182.25;;;16.87;100.00
8653;BME280;4364;52.426;9.424;2023-07-31T09:31:56;100189.44;;;17.00;100.00
8653;BME280;4364;52.426;9.424;2023-07-31T09:34:36;100180.41;;;17.00;100.00
8653;BME280;4364;52.426;9.424;2023-07-31T09:37:04;100184.81;;;16.92;100.00
8653;BME280;4364;52.426;9.424;2023-07-31T09:39:31;100179.03;;;16.85;100.00
8653;BME280;4364;52.426;9.424;2023-07-31T09:41:58;100179.94;;;16.98;100.00
8653;BME280;4364;52.426;9.424;2023-07-31T09:44:38;100171.25;;;16.87;100.00
8653;BME280;4364;52.426;9.424;2023-07-31T09:47:06;100169.34;;;16.88;100.00
8653;BME280;4364;52.426;9.424;2023-07-31T09:49:32;100165.88;;;16.99;100.00
8653;BME280;4364;52.426;9.424;2023-07-31T09:51:59;100164.19;;;16.86;100.00
8653;BME280;4364;52.426;9.424;2023-07-31T09:54:25;100159.09;;;16.97;100.00
8653;BME280;4364;52.426;9.424;2023-07-31T09:56:52;100155.03;;;17.03;100.00
8653;BME280;4364;52.426;9.424;2023-07-31T09:59:19;100151.28;;;17.08;100.00
8653;BME280;4364;52.426;9.424;2023-07-31T10:01:50;100140.88;;;17.13;100.00
8653;BME280;4364;52.426;9.424;2023-07-31T10:04:21;100146.19;;;17.18;100.00
8653;BME280;4364;52.426;9.424;2023-07-31T10:06:53;100147.13;;;17.22;100.00
8653;BME280;4364;52.426;9.424;2023-07-31T10:09:21;100155.59;;;17.17;100.00
8653;BME280;4364;52.426;9.424;2023-07-31T10:12:00;100152.22;;;17.33;100.00
8653;BME280;4364;52.426;9.424;2023-07-31T10:14:27;100142.16;;;17.37;100.00
8653;BME280;4364;52.426;9.424;2023-07-31T10:16:56;100145.31;;;17.48;100.00
8653;BME280;4364;52.426;9.424;2023-07-31T10:19:23;100136.13;;;17.77;100.00
8653;BME280;4364;52.426;9.424;2023-07-31T10:21:50;100136.13;;;17.77;100.00
8653;BME280;4364;52.426;9.424;2023-07-31T10:24:18;100145.59;;;17.88;100.00
8653;BME280;4364;52.426;9.424;2023-07-31T10:26:45;100140.94;;;18.01;100.00
8653;BME280;4364;52.426;9.424;2023-07-31T10:29:15;100136.78;;;18.07;100.00
8653;BME280;4364;52.426;9.424;2023-07-31T10:31:42;100134.53;;;18.09;100.00
8653;BME280;4364;52.426;9.424;2023-07-31T10:34:09;100127.41;;;18.08;100.00
8653;BME280;4364;52.426;9.424;2023-07-31T10:36:36;100128.53;;;18.07;100.00
8653;BME280;4364;52.426;9.424;2023-07-31T10:39:04;100127.28;;;18.05;100.00
8653;BME280;4364;52.426;9.424;2023-07-31T10:41:31;100131.16;;;17.91;100.00
8653;BME280;4364;52.426;9.424;2023-07-31T10:43:59;100128.16;;;17.84;100.00
8653;BME280;4364;52.426;9.424;2023-07-31T10:46:27;100121.97;;;17.87;100.00
8653;BME280;4364;52.426;9.424;2023-07-31T10:49:02;100120.63;;;17.93;100.00
8653;BME280;4364;52.426;9.424;2023-07-31T10:51:33;100126.13;;;18.06;100.00
8653;BME280;4364;52.426;9.424;2023-07-31T10:54:14;100115.47;;;17.92;100.00
8653;BME280;4364;52.426;9.424;2023-07-31T10:56:45;100122.34;;;17.98;100.00
8653;BME280;4364;52.426;9.424;2023-07-31T10:59:13;100108.25;;;18.12;100.00
8653;BME280;4364;52.426;9.424;2023-07-31T11:01:54;100107.25;;;18.04;99.03
8653;BME280;4364;52.426;9.424;2023-07-31T11:04:26;100096.69;;;18.06;97.75
8653;BME280;4364;52.426;9.424;2023-07-31T11:07:01;100100.91;;;18.04;97.73
8653;BME280;4364;52.426;9.424;2023-07-31T11:09:30;100112.28;;;18.14;96.83
8653;BME280;4364;52.426;9.424;2023-07-31T11:12:00;100103.38;;;18.18;98.11
8653;BME280;4364;52.426;9.424;2023-07-31T11:14:26;100111.81;;;18.12;97.83
8653;BME280;4364;52.426;9.424;2023-07-31T11:16:53;100104.91;;;17.94;98.93
8653;BME280;4364;52.426;9.424;2023-07-31T11:19:23;100104.91;;;17.94;100.00
8653;BME280;4364;52.426;9.424;2023-07-31T11:21:51;100108.47;;;17.94;100.00
8653;BME280;4364;52.426;9.424;2023-07-31T11:24:19;100099.63;;;17.89;100.00
8653;BME280;4364;52.426;9.424;2023-07-31T11:26:50;100096.44;;;17.99;100.00
8653;BME280;4364;52.426;9.424;2023-07-31T11:29:18;100099.63;;;17.89;100.00
8653;BME280;4364;52.426;9.424;2023-07-31T11:31:47;100105.97;;;17.89;100.00
8653;BME280;4364;52.426;9.424;2023-07-31T11:34:15;100097.94;;;17.96;100.00
8653;BME280;4364;52.426;9.424;2023-07-31T11:36:53;100101.25;;;18.02;100.00
8653;BME280;4364;52.426;9.424;2023-07-31T11:39:19;100092.31;;;17.59;100.00
8653;BME280;4364;52.426;9.424;2023-07-31T11:41:46;100087.19;;;17.70;100.00
8653;BME280;4364;52.426;9.424;2023-07-31T11:44:12;100096.09;;;17.67;100.00
8653;BME280;4364;52.426;9.424;2023-07-31T11:46:56;100086.00;;;17.59;100.00
8653;BME280;4364;52.426;9.424;2023-07-31T11:49:23;100085.88;;;17.55;100.00
8653;BME280;4364;52.426;9.424;2023-07-31T11:51:49;100089.47;;;17.56;100.00
8653;BME280;4364;52.426;9.424;2023-07-31T11:54:16;100086.81;;;17.59;100.00
8653;BME280;4364;52.426;9.424;2023-07-31T11:56:44;100088.63;;;17.55;100.00
8653;BME280;4364;52.426;9.424;2023-07-31T11:59:10;100086.56;;;17.52;100.00
8653;BME280;4364;52.426;9.424;2023-07-31T12:01:39;100083.97;;;17.56;100.00
8653;BME280;4364;52.426;9.424;2023-07-31T12:04:06;100083.63;;;17.57;100.00
8653;BME280;4364;52.426;9.424;2023-07-31T12:06:34;100083.19;;;17.68;100.00
8653;BME280;4364;52.426;9.424;2023-07-31T12:09:03;100093.97;;;17.73;100.00
8653;BME280;4364;52.426;9.424;2023-07-31T12:11:29;100084.41;;;17.58;100.00
8653;BME280;4364;52.426;9.424;2023-07-31T12:13:56;100087.38;;;17.53;100.00
8653;BME280;4364;52.426;9.424;2023-07-31T12:16:26;100075.16;;;17.63;100.00
8653;BME280;4364;52.426;9.424;2023-07-31T12:18:53;100084.75;;;17.90;100.00
8653;BME280;4364;52.426;9.424;2023-07-31T12:21:19;100073.97;;;17.97;100.00
8653;BME280;4364;52.426;9.424;2023-07-31T12:23:46;100072.94;;;18.14;100.00
8653;BME280;4364;52.426;9.424;2023-07-31T12:26:14;100065.63;;;18.30;100.00
8653;BME280;4364;52.426;9.424;2023-07-31T12:28:42;100064.25;;;18.12;100.00
8653;BME280;4364;52.426;9.424;2023-07-31T12:31:21;100071.13;;;18.06;100.00
8653;BME280;4364;52.426;9.424;2023-07-31T12:33:50;100078.56;;;17.93;100.00
8653;BME280;4364;52.426;9.424;2023-07-31T12:36:20;100073.59;;;17.86;100.00
8653;BME280;4364;52.426;9.424;2023-07-31T12:38:47;100080.56;;;17.84;100.00
8653;BME280;4364;52.426;9.424;2023-07-31T12:41:13;100060.00;;;17.90;100.00
8653;BME280;4364;52.426;9.424;2023-07-31T12:43:41;100059.09;;;17.98;100.00
8653;BME280;4364;52.426;9.424;2023-07-31T12:46:08;100056.69;;;17.96;100.00
8653;BME280;4364;52.426;9.424;2023-07-31T12:48:36;100043.94;;;17.92;100.00
8653;BME280;4364;52.426;9.424;2023-07-31T12:51:04;100047.38;;;17.89;100.00
8653;BME280;4364;52.426;9.424;2023-07-31T12:53:30;100045.78;;;17.88;100.00
8653;BME280;4364;52.426;9.424;2023-07-31T12:55:57;100046.50;;;18.09;100.00
8653;BME280;4364;52.426;9.424;2023-07-31T12:58:24;100050.16;;;18.13;100.00
8653;BME280;4364;52.426;9.424;2023-07-31T13:00:51;100044.41;;;18.19;100.00
8653;BME280;4364;52.426;9.424;2023-07-31T13:03:18;100047.63;;;18.08;100.00